METAR Formatted Surface Weather Observation
Issued by NWS

Home | Current Version | Previous Version | Text Only | Print | Product List | Glossary On
Versions: 1 2 3 4 5 6 7 8
000
SAUS44 KSHV 011657
MTRAQV
METAR KAQV 011656Z AUTO 02006KT 10SM CLR 33/17 A3000 RMK AO2 SLP154
T03330172



USA.gov is the U.S. government's official web portal to all federal, state and local government web resources and services.